Time;durP1;ratioP1;P1;durP2;ratioP2;P2;SDS_P1;SDS_P2;PMS_P1;PMS_P2;Temp;Humidity;BMP_temperature;BMP_pressure;BME280_temperature;BME280_humidity;BME280_pressure;Samples;Min_cycle;Max_cycle;Signal;HPM_P1;HPM_P2
2023/03/28 00:00:48;;;;;;;4.57;3.87;;;1.30;99.90;;;;;;5096118;28;20411;-43
2023/03/28 00:03:17;;;;;;;6.13;4.40;;;1.30;99.90;;;;;;5096336;28;20434;-46
2023/03/28 00:05:47;;;;;;;6.63;3.17;;;1.40;99.90;;;;;;5095282;28;20422;-44
2023/03/28 00:08:13;;;;;;;5.60;3.93;;;1.40;99.90;;;;;;5095260;28;20499;-43
2023/03/28 00:10:39;;;;;;;4.87;3.93;;;1.40;99.90;;;;;;5096068;28;20433;-45
2023/03/28 00:13:05;;;;;;;5.17;4.17;;;1.40;99.90;;;;;;5096445;28;20422;-44
2023/03/28 00:15:31;;;;;;;4.03;3.53;;;1.40;59.00;;;;;;5096676;28;20495;-46
2023/03/28 00:17:59;;;;;;;7.30;4.20;;;1.40;41.20;;;;;;5096508;28;20172;-47
2023/03/28 00:20:26;;;;;;;8.37;3.50;;;1.40;1.00;;;;;;5096260;28;20173;-46
2023/03/28 00:22:53;;;;;;;5.17;3.70;;;1.40;1.00;;;;;;5093979;28;20414;-43
2023/03/28 00:25:19;;;;;;;4.97;3.53;;;1.50;1.00;;;;;;5095285;28;20458;-45
2023/03/28 00:27:45;;;;;;;6.07;3.43;;;1.40;1.00;;;;;;5096080;28;20480;-43
2023/03/28 00:30:11;;;;;;;4.83;3.93;;;1.50;1.00;;;;;;5095312;28;20751;-44
2023/03/28 00:32:37;;;;;;;4.20;3.37;;;1.40;1.00;;;;;;5094006;28;21318;-43
2023/03/28 00:35:03;;;;;;;9.93;4.47;;;1.50;1.00;;;;;;5094461;28;20454;-44
2023/03/28 00:37:29;;;;;;;7.20;4.07;;;1.50;1.00;;;;;;5095169;28;20500;-46
2023/03/28 00:39:54;;;;;;;5.77;4.03;;;1.60;1.00;;;;;;5093865;28;20517;-43
2023/03/28 00:42:22;;;;;;;6.60;4.00;;;1.60;1.00;;;;;;5095533;28;20489;-45
2023/03/28 00:44:52;;;;;;;5.23;4.20;;;1.60;1.00;;;;;;5098208;28;20442;-45
2023/03/28 00:47:30;;;;;;;6.20;4.07;;;1.60;1.00;;;;;;5099259;28;20445;-45
2023/03/28 00:50:18;;;;;;;6.90;3.77;;;1.60;1.00;;;;;;5099784;28;20787;-44
2023/03/28 00:53:00;;;;;;;4.33;3.90;;;1.70;1.00;;;;;;5084371;28;20437;-45
2023/03/28 00:55:34;;;;;;;5.40;3.70;;;1.60;1.00;;;;;;5098238;28;20568;-43
2023/03/28 00:58:01;;;;;;;3.60;3.27;;;1.60;1.00;;;;;;5099089;28;20515;-45
2023/03/28 01:00:29;;;;;;;5.60;3.87;;;1.60;1.00;;;;;;5098627;28;20406;-43
2023/03/28 01:02:57;;;;;;;7.53;3.90;;;1.60;1.00;;;;;;5080926;28;20436;-46
2023/03/28 01:05:25;;;;;;;4.47;3.27;;;1.60;1.00;;;;;;5096512;28;20418;-44
2023/03/28 01:08:17;;;;;;;4.23;3.83;;;1.60;1.00;;;;;;5098088;28;20501;-43
2023/03/28 01:10:44;;;;;;;5.10;3.70;;;1.60;1.00;;;;;;5097126;28;20864;-44
2023/03/28 01:13:11;;;;;;;9.80;3.70;;;1.60;1.00;;;;;;5096863;28;20447;-44
2023/03/28 01:15:36;;;;;;;7.70;4.30;;;1.60;1.00;;;;;;5096606;28;20466;-44
2023/03/28 01:18:02;;;;;;;6.33;3.97;;;1.60;1.00;;;;;;5097252;28;20414;-46
2023/03/28 01:20:36;;;;;;;6.27;3.87;;;1.50;1.00;;;;;;5098425;28;20245;-45
2023/03/28 01:23:20;;;;;;;6.03;4.77;;;1.50;1.00;;;;;;5098221;28;20411;-43
2023/03/28 01:25:55;;;;;;;5.50;3.73;;;1.50;1.00;;;;;;5098614;28;20425;-46
2023/03/28 01:28:36;;;;;;;7.50;4.57;;;1.50;1.00;;;;;;5097268;28;20417;-46
2023/03/28 01:31:22;;;;;;;4.90;4.37;;;1.50;1.00;;;;;;5096537;28;20427;-43
2023/03/28 01:33:48;;;;;;;4.93;4.00;;;1.50;1.10;;;;;;5097593;28;20406;-46
2023/03/28 01:36:40;;;;;;;5.77;4.50;;;1.50;24.50;;;;;;5096931;28;20522;-43
2023/03/28 01:39:08;;;;;;;5.40;4.77;;;1.50;4.70;;;;;;5095726;28;20254;-44
2023/03/28 01:42:11;;;;;;;7.73;4.70;;;1.50;19.40;;;;;;5095718;28;20477;-43
2023/03/28 01:44:55;;;;;;;6.83;5.10;;;1.40;11.40;;;;;;5080274;28;20430;-46
2023/03/28 01:47:31;;;;;;;6.83;5.20;;;1.40;1.00;;;;;;5097491;28;20410;-44
2023/03/28 01:50:02;;;;;;;4.47;4.03;;;1.40;25.40;;;;;;5097808;28;20426;-44
2023/03/28 01:53:04;;;;;;;4.90;4.43;;;1.40;33.80;;;;;;5097772;28;20414;-46
2023/03/28 01:55:44;;;;;;;5.30;4.23;;;1.30;15.80;;;;;;5097738;28;20549;-46
2023/03/28 01:58:21;;;;;;;6.53;4.60;;;1.30;54.90;;;;;;5097338;28;20472;-45
2023/03/28 02:00:58;;;;;;;14.23;6.63;;;1.30;74.80;;;;;;5096883;28;20429;-43
2023/03/28 02:03:33;;;;;;;6.87;4.17;;;1.20;78.30;;;;;;5096841;28;20407;-46
2023/03/28 02:06:00;;;;;;;7.33;4.80;;;1.20;23.40;;;;;;5097776;28;20482;-43
2023/03/28 02:08:28;;;;;;;5.90;4.33;;;1.20;12.30;;;;;;5096959;28;20534;-45
2023/03/28 02:10:55;;;;;;;5.00;3.70;;;1.10;18.00;;;;;;5096551;28;20426;-42
2023/03/28 02:13:27;;;;;;;6.90;5.27;;;1.10;76.80;;;;;;5097310;28;20467;-44
2023/03/28 02:15:55;;;;;;;5.10;4.07;;;1.10;97.30;;;;;;5096445;28;20462;-45
2023/03/28 02:18:28;;;;;;;5.00;4.10;;;1.10;76.00;;;;;;5097738;28;20429;-44
2023/03/28 02:20:57;;;;;;;8.90;5.80;;;1.10;90.90;;;;;;5096367;28;20835;-42
2023/03/28 02:23:28;;;;;;;6.10;3.80;;;1.10;47.70;;;;;;5096444;28;20906;-44
2023/03/28 02:25:54;;;;;;;5.93;4.27;;;1.10;37.50;;;;;;5096263;28;20429;-43
2023/03/28 02:28:20;;;;;;;6.07;3.63;;;1.10;31.00;;;;;;5096015;28;20414;-44
2023/03/28 02:30:46;;;;;;;8.57;4.47;;;1.10;36.00;;;;;;5096140;28;20180;-43
2023/03/28 02:33:32;;;;;;;7.10;4.03;;;1.10;30.70;;;;;;5095101;28;20521;-47
2023/03/28 02:36:18;;;;;;;5.13;3.97;;;1.10;14.30;;;;;;5094631;28;20196;-44
2023/03/28 02:39:11;;;;;;;5.00;3.80;;;1.00;16.10;;;;;;5086688;28;20604;-45
2023/03/28 02:42:01;;;;;;;4.60;3.80;;;1.00;2.10;;;;;;5094691;28;20418;-45
2023/03/28 02:44:51;;;;;;;5.80;4.47;;;1.00;1.00;;;;;;5094979;28;20407;-43
2023/03/28 02:47:19;;;;;;;4.40;3.27;;;1.00;1.00;;;;;;5093738;28;20390;-43
2023/03/28 02:50:01;;;;;;;3.80;3.50;;;1.00;1.00;;;;;;5093346;28;20806;-43
2023/03/28 02:52:57;;;;;;;4.93;4.40;;;0.90;1.00;;;;;;5094759;28;20496;-45
2023/03/28 02:55:33;;;;;;;5.63;4.13;;;1.00;1.00;;;;;;5094942;28;20581;-46
2023/03/28 02:58:09;;;;;;;5.20;3.73;;;0.90;1.00;;;;;;5095966;28;20422;-44
2023/03/28 03:00:36;;;;;;;5.90;3.90;;;0.90;1.00;;;;;;5096353;28;20631;-43
2023/03/28 03:03:07;;;;;;;8.10;4.50;;;0.90;1.00;;;;;;5095794;28;20398;-45
2023/03/28 03:05:33;;;;;;;5.70;4.20;;;0.90;1.00;;;;;;5095146;28;20438;-48
2023/03/28 03:07:58;;;;;;;4.80;3.70;;;0.80;1.00;;;;;;5094640;28;20823;-44
2023/03/28 03:10:24;;;;;;;5.03;4.43;;;0.80;1.00;;;;;;5095734;28;20180;-44
2023/03/28 03:12:50;;;;;;;7.00;4.97;;;0.80;1.00;;;;;;5095067;28;20180;-44
2023/03/28 03:15:15;;;;;;;7.20;3.97;;;0.80;1.00;;;;;;5095560;28;20875;-45
2023/03/28 03:17:42;;;;;;;8.00;4.90;;;0.70;1.00;;;;;;5078017;28;20168;-44
2023/03/28 03:20:08;;;;;;;6.77;5.10;;;0.70;1.00;;;;;;5095415;28;20168;-44
2023/03/28 03:22:35;;;;;;;5.90;4.30;;;0.70;1.00;;;;;;5095031;28;20418;-44
2023/03/28 03:25:05;;;;;;;4.13;3.73;;;0.70;1.00;;;;;;5094615;28;20410;-44
2023/03/28 03:27:31;;;;;;;5.17;4.67;;;0.60;1.00;;;;;;5095245;28;20466;-44
2023/03/28 03:29:57;;;;;;;5.37;4.87;;;0.60;1.00;;;;;;5096746;28;20819;-44
2023/03/28 03:32:23;;;;;;;7.37;5.00;;;0.60;1.00;;;;;;5094776;28;20718;-44
2023/03/28 03:34:48;;;;;;;9.50;5.07;;;0.50;1.00;;;;;;5094807;28;20424;-45
2023/03/28 03:37:16;;;;;;;6.83;5.30;;;0.50;1.00;;;;;;5095726;28;20187;-45
2023/03/28 03:39:42;;;;;;;7.77;4.90;;;0.50;1.00;;;;;;5094807;28;20194;-43
2023/03/28 03:42:08;;;;;;;4.83;4.33;;;0.50;1.00;;;;;;5093816;28;20410;-43
2023/03/28 03:44:34;;;;;;;7.87;4.93;;;0.50;1.00;;;;;;5095663;28;20497;-46
2023/03/28 03:47:00;;;;;;;6.80;5.40;;;0.50;1.00;;;;;;5094059;28;20535;-45
2023/03/28 03:49:25;;;;;;;6.53;5.37;;;0.40;1.00;;;;;;5093686;28;20362;-42
2023/03/28 03:51:51;;;;;;;6.40;4.73;;;0.40;1.00;;;;;;5091947;28;20173;-43
2023/03/28 03:54:17;;;;;;;7.70;4.60;;;0.40;19.70;;;;;;5094349;28;20168;-46
2023/03/28 03:56:43;;;;;;;5.50;4.87;;;0.30;18.90;;;;;;5095475;28;20540;-44
2023/03/28 03:59:08;;;;;;;8.27;4.97;;;0.30;23.30;;;;;;5093380;28;20414;-45
2023/03/28 04:01:34;;;;;;;5.00;4.50;;;0.30;16.20;;;;;;5093395;28;20176;-44
2023/03/28 04:04:00;;;;;;;5.90;5.30;;;0.30;19.90;;;;;;5093837;28;20241;-43
2023/03/28 04:06:28;;;;;;;6.67;4.60;;;0.30;34.90;;;;;;5094002;28;20340;-43
2023/03/28 04:08:53;;;;;;;5.10;4.60;;;0.30;54.50;;;;;;5093535;28;20422;-45
2023/03/28 04:11:19;;;;;;;8.43;4.90;;;0.20;70.60;;;;;;5094428;28;20427;-44
2023/03/28 04:13:45;;;;;;;5.97;4.50;;;0.20;56.30;;;;;;5095054;28;20188;-45
2023/03/28 04:16:12;;;;;;;9.33;4.40;;;0.20;32.70;;;;;;5075698;28;20437;-44
2023/03/28 04:18:38;;;;;;;5.47;4.97;;;0.20;15.20;;;;;;5098122;28;20184;-45
2023/03/28 04:21:04;;;;;;;5.70;5.13;;;0.20;15.90;;;;;;5095085;28;20429;-45
2023/03/28 04:23:30;;;;;;;4.77;4.20;;;0.20;13.00;;;;;;5095387;28;20681;-45
2023/03/28 04:25:56;;;;;;;4.77;4.30;;;0.10;1.00;;;;;;5095893;28;20425;-46
2023/03/28 04:28:26;;;;;;;5.23;4.70;;;0.10;1.00;;;;;;5095823;28;20180;-45
2023/03/28 04:30:53;;;;;;;6.27;5.03;;;0.00;1.00;;;;;;5096256;28;20437;-44
2023/03/28 04:33:23;;;;;;;8.30;5.47;;;0.00;1.00;;;;;;5095178;28;20788;-44
2023/03/28 04:36:01;;;;;;;5.83;5.10;;;0.00;1.00;;;;;;5094668;28;20458;-44
2023/03/28 04:38:30;;;;;;;6.83;5.27;;;0.00;1.00;;;;;;5094561;28;20446;-47
2023/03/28 04:40:58;;;;;;;5.40;4.90;;;0.00;1.00;;;;;;5096136;28;20491;-43
2023/03/28 04:43:25;;;;;;;5.60;5.10;;;-0.10;1.00;;;;;;5095311;28;20425;-46
2023/03/28 04:45:51;;;;;;;5.77;5.10;;;-0.10;1.00;;;;;;5093662;28;20430;-44
2023/03/28 04:48:17;;;;;;;6.87;5.60;;;-0.10;1.00;;;;;;5096886;28;20406;-44
2023/03/28 04:50:43;;;;;;;7.53;5.90;;;-0.10;1.00;;;;;;5096355;28;20858;-44
2023/03/28 04:53:09;;;;;;;6.73;5.97;;;-0.10;1.00;;;;;;5096866;28;20444;-45
2023/03/28 04:55:34;;;;;;;6.00;5.13;;;-0.20;1.00;;;;;;5095994;28;20224;-43
2023/03/28 04:58:00;;;;;;;5.50;4.97;;;-0.20;1.80;;;;;;5094921;28;20495;-44
2023/03/28 05:00:26;;;;;;;6.17;5.13;;;-0.20;1.00;;;;;;5096149;28;20168;-44
2023/03/28 05:03:03;;;;;;;5.80;5.20;;;-0.20;1.00;;;;;;5095107;28;20329;-43
2023/03/28 05:05:29;;;;;;;5.60;5.00;;;-0.20;5.80;;;;;;5094293;28;20176;-43
2023/03/28 05:07:58;;;;;;;5.70;4.93;;;-0.30;1.10;;;;;;5094438;28;20415;-45
2023/03/28 05:10:24;;;;;;;6.33;5.73;;;-0.30;1.00;;;;;;5093899;28;20518;-42
2023/03/28 05:12:50;;;;;;;5.30;4.80;;;-0.30;1.00;;;;;;5094985;28;20505;-44
2023/03/28 05:15:15;;;;;;;5.40;4.50;;;-0.20;1.00;;;;;;5092527;28;20470;-44
2023/03/28 05:17:41;;;;;;;5.80;4.50;;;-0.30;1.00;;;;;;5091375;28;20240;-44
2023/03/28 05:20:10;;;;;;;5.57;5.00;;;-0.30;1.00;;;;;;5092996;28;20164;-45
2023/03/28 05:22:36;;;;;;;7.10;4.80;;;-0.30;1.00;;;;;;5092623;28;20188;-48
2023/03/28 05:25:07;;;;;;;4.93;4.37;;;-0.30;1.00;;;;;;5091132;28;20487;-43
2023/03/28 05:27:33;;;;;;;5.80;5.20;;;-0.30;1.00;;;;;;5088359;28;20455;-46
2023/03/28 05:30:00;;;;;;;7.73;5.10;;;-0.30;1.00;;;;;;5089618;28;20426;-43
2023/03/28 05:32:26;;;;;;;6.00;5.20;;;-0.20;1.00;;;;;;5089407;28;20422;-47
2023/03/28 05:34:52;;;;;;;8.90;5.20;;;-0.20;1.00;;;;;;5078592;28;20431;-47
2023/03/28 05:37:18;;;;;;;5.40;4.60;;;-0.20;1.00;;;;;;5069929;28;20510;-45
2023/03/28 05:39:43;;;;;;;6.83;5.30;;;-0.10;1.00;;;;;;5062445;28;20434;-47
2023/03/28 05:42:09;;;;;;;7.00;5.97;;;-0.10;1.00;;;;;;5090256;28;20176;-45
2023/03/28 05:44:34;;;;;;;6.20;5.50;;;-0.10;1.00;;;;;;5089951;28;20219;-44
2023/03/28 05:47:00;;;;;;;9.80;6.57;;;-0.10;1.00;;;;;;5088619;28;20279;-44
2023/03/28 05:49:26;;;;;;;7.90;6.00;;;-0.10;1.00;;;;;;5088396;28;20176;-44
2023/03/28 05:51:51;;;;;;;7.20;6.50;;;-0.10;1.00;;;;;;5088478;28;20200;-43
2023/03/28 05:54:17;;;;;;;7.03;6.27;;;0.00;1.00;;;;;;5090101;28;20748;-45
2023/03/28 05:56:43;;;;;;;6.97;5.87;;;0.00;1.00;;;;;;5089879;28;20200;-44
2023/03/28 05:59:09;;;;;;;8.77;6.20;;;0.10;1.00;;;;;;5089756;28;20172;-45
2023/03/28 06:01:35;;;;;;;16.03;9.30;;;0.20;4.30;;;;;;5091130;28;20164;-44
2023/03/28 06:04:02;;;;;;;9.77;7.70;;;0.30;11.40;;;;;;5092138;28;20235;-44
2023/03/28 06:06:28;;;;;;;9.57;7.83;;;0.40;1.00;;;;;;5093445;28;20426;-44
2023/03/28 06:08:54;;;;;;;7.70;6.80;;;0.50;1.00;;;;;;5091706;28;21148;-45
2023/03/28 06:11:20;;;;;;;7.70;6.73;;;0.60;1.00;;;;;;5090410;28;20589;-45
2023/03/28 06:13:45;;;;;;;8.33;7.00;;;0.80;1.00;;;;;;5092279;28;20188;-44
2023/03/28 06:16:11;;;;;;;8.43;7.00;;;0.90;1.00;;;;;;5092072;28;20204;-44
2023/03/28 06:18:36;;;;;;;8.30;7.50;;;1.10;1.00;;;;;;5093242;28;20191;-46
2023/03/28 06:21:02;;;;;;;9.30;7.23;;;1.30;1.00;;;;;;5092072;28;20176;-44
2023/03/28 06:23:28;;;;;;;9.50;7.23;;;1.40;1.00;;;;;;5093736;28;20184;-43
2023/03/28 06:25:53;;;;;;;10.10;7.17;;;1.60;99.90;;;;;;5094228;28;20265;-44
2023/03/28 06:28:19;;;;;;;7.40;6.70;;;1.80;99.90;;;;;;5094198;28;20177;-46
2023/03/28 06:30:49;;;;;;;6.70;6.10;;;2.00;65.60;;;;;;5094166;28;20180;-43
2023/03/28 06:33:15;;;;;;;7.73;6.87;;;2.30;99.90;;;;;;5092339;28;20172;-46
2023/03/28 06:35:40;;;;;;;8.63;6.60;;;2.60;99.90;;;;;;5074793;28;20581;-44
2023/03/28 06:38:06;;;;;;;11.07;6.23;;;2.90;1.00;;;;;;5072208;28;20515;-45
2023/03/28 06:40:31;;;;;;;7.57;6.13;;;3.30;99.90;;;;;;5072031;28;20173;-43
2023/03/28 06:42:57;;;;;;;6.13;5.53;;;3.50;99.90;;;;;;5074596;28;20305;-44
2023/03/28 06:45:23;;;;;;;6.63;5.33;;;3.60;95.70;;;;;;5073062;28;20192;-44
2023/03/28 06:47:49;;;;;;;6.63;5.93;;;3.80;1.00;;;;;;5072930;28;20273;-44
2023/03/28 06:50:15;;;;;;;6.40;5.17;;;4.00;99.90;;;;;;5073492;28;20216;-45
2023/03/28 06:52:41;;;;;;;6.20;5.23;;;4.20;1.00;;;;;;5072281;28;20450;-45
2023/03/28 06:55:06;;;;;;;8.13;5.07;;;4.20;99.90;;;;;;5073305;28;20424;-44
2023/03/28 06:57:32;;;;;;;6.33;5.27;;;4.20;66.00;;;;;;5072597;28;20205;-45
2023/03/28 06:59:58;;;;;;;9.33;5.40;;;4.30;99.90;;;;;;5072520;28;20434;-44
2023/03/28 07:02:24;;;;;;;9.70;5.10;;;4.40;81.20;;;;;;5071189;28;20413;-45
2023/03/28 07:04:50;;;;;;;6.90;5.70;;;4.60;1.00;;;;;;5070210;28;20181;-44
2023/03/28 07:07:16;;;;;;;6.80;5.10;;;4.90;1.00;;;;;;5071310;28;20427;-46
2023/03/28 07:09:41;;;;;;;5.97;4.70;;;5.10;99.90;;;;;;5073260;28;20453;-47
2023/03/28 07:12:07;;;;;;;7.33;5.00;;;5.30;1.00;;;;;;5072175;28;20513;-45
2023/03/28 07:14:33;;;;;;;5.83;4.67;;;5.30;1.00;;;;;;5072960;28;20261;-47
2023/03/28 07:16:59;;;;;;;9.37;4.40;;;5.40;1.00;;;;;;5073328;28;20220;-44
2023/03/28 07:19:26;;;;;;;9.70;4.47;;;5.50;99.90;;;;;;5072454;28;20416;-48
2023/03/28 07:21:52;;;;;;;6.00;4.70;;;5.70;99.90;;;;;;5072111;28;20200;-45
2023/03/28 07:24:18;;;;;;;7.13;4.97;;;6.00;99.90;;;;;;5076523;28;20534;-45
2023/03/28 07:26:44;;;;;;;6.27;4.50;;;6.20;99.90;;;;;;5091703;28;20462;-46
2023/03/28 07:29:09;;;;;;;11.70;5.47;;;6.20;56.70;;;;;;5090349;28;20501;-47
2023/03/28 07:31:35;;;;;;;10.30;7.20;;;6.20;53.00;;;;;;5090589;28;20450;-45
2023/03/28 07:34:01;;;;;;;5.33;4.13;;;6.40;37.10;;;;;;5092191;28;20215;-44
2023/03/28 07:36:27;;;;;;;9.23;4.50;;;6.70;33.30;;;;;;5092747;28;20222;-43
2023/03/28 07:38:53;;;;;;;7.80;4.77;;;7.50;13.90;;;;;;5092224;28;20176;-43
2023/03/28 07:41:21;;;;;;;8.53;5.77;;;8.00;1.00;;;;;;5090378;28;20822;-47
2023/03/28 07:43:46;;;;;;;6.77;4.90;;;8.20;1.00;;;;;;5090870;28;20551;-44
2023/03/28 07:46:13;;;;;;;10.23;4.37;;;8.70;1.00;;;;;;5091496;28;20491;-44
2023/03/28 07:48:40;;;;;;;5.60;3.83;;;8.90;1.00;;;;;;5091225;28;20216;-44
2023/03/28 07:51:06;;;;;;;6.90;4.33;;;9.20;1.00;;;;;;5092153;28;20453;-45
2023/03/28 07:53:33;;;;;;;6.63;4.20;;;9.50;1.00;;;;;;5093865;28;20428;-43
2023/03/28 07:55:59;;;;;;;8.20;4.53;;;10.30;1.00;;;;;;5093951;28;20466;-45
2023/03/28 07:58:24;;;;;;;8.20;3.50;;;10.30;1.00;;;;;;5093594;28;20851;-46
2023/03/28 08:00:50;;;;;;;7.77;3.47;;;10.90;1.00;;;;;;5093977;28;20417;-44
2023/03/28 08:03:17;;;;;;;4.77;3.10;;;11.50;1.00;;;;;;5093710;28;20196;-45
2023/03/28 08:05:48;;;;;;;9.50;3.80;;;12.00;1.00;;;;;;5091845;28;20180;-44
2023/03/28 08:08:14;;;;;;;7.13;3.10;;;12.50;1.00;;;;;;5092047;28;20506;-44
2023/03/28 08:10:39;;;;;;;8.27;3.00;;;12.80;1.00;;;;;;5092243;28;20529;-44
2023/03/28 08:13:05;;;;;;;7.87;3.97;;;12.70;1.00;;;;;;5092451;28;20183;-42
2023/03/28 08:15:31;;;;;;;8.30;3.47;;;12.30;1.00;;;;;;5092692;28;20709;-46
2023/03/28 08:17:56;;;;;;;6.80;3.50;;;12.60;1.00;;;;;;5090614;28;20192;-44
2023/03/28 08:20:22;;;;;;;6.70;3.20;;;12.60;1.00;;;;;;5092576;28;20180;-43
2023/03/28 08:22:47;;;;;;;4.70;3.13;;;12.20;1.00;;;;;;5092994;28;20333;-43
2023/03/28 08:25:14;;;;;;;3.53;2.83;;;12.50;1.00;;;;;;5093569;28;20244;-44
2023/03/28 08:27:39;;;;;;;5.27;3.63;;;12.30;1.00;;;;;;5093313;28;20228;-43
2023/03/28 08:30:06;;;;;;;5.70;2.70;;;12.90;1.00;;;;;;5091577;28;20470;-42
2023/03/28 08:32:32;;;;;;;4.00;2.40;;;14.00;1.00;;;;;;5093417;28;20811;-44
2023/03/28 08:35:01;;;;;;;4.10;2.80;;;14.90;1.00;;;;;;5092972;28;20505;-44
2023/03/28 08:37:28;;;;;;;5.63;2.70;;;15.70;1.00;;;;;;5092675;28;20237;-45
2023/03/28 08:39:54;;;;;;;4.83;2.30;;;15.30;1.00;;;;;;5091077;28;20487;-46
2023/03/28 08:42:31;;;;;;;4.30;3.30;;;16.50;1.00;;;;;;5091948;28;20414;-44
2023/03/28 08:45:26;;;;;;;5.93;3.60;;;17.80;1.00;;;;;;5091064;28;20528;-43
2023/03/28 08:47:59;;;;;;;5.70;2.60;;;18.80;1.00;;;;;;5065585;28;20445;-42
2023/03/28 08:50:32;;;;;;;4.73;3.63;;;19.50;1.00;;;;;;5088617;28;20890;-45
2023/03/28 08:52:59;;;;;;;4.47;2.87;;;18.30;1.00;;;;;;5088337;28;20421;-43
2023/03/28 08:55:32;;;;;;;6.80;2.63;;;17.30;1.00;;;;;;5089263;28;20895;-43
2023/03/28 08:57:58;;;;;;;3.70;2.33;;;16.80;1.00;;;;;;5091533;28;20495;-43
2023/03/28 09:00:30;;;;;;;4.37;2.43;;;18.00;1.00;;;;;;5091663;28;20427;-43
2023/03/28 09:02:57;;;;;;;6.97;2.50;;;18.30;1.00;;;;;;5091979;28;20411;-43
2023/03/28 09:05:44;;;;;;;4.97;2.73;;;19.70;1.00;;;;;;5096356;28;20426;-46
2023/03/28 09:08:28;;;;;;;5.30;2.87;;;20.50;1.00;;;;;;5096938;28;20421;-46
2023/03/28 09:11:02;;;;;;;5.63;2.93;;;19.80;1.00;;;;;;5093282;28;20471;-42
2023/03/28 09:13:48;;;;;;;3.63;2.57;;;19.90;1.00;;;;;;5095077;28;20972;-43
2023/03/28 09:16:53;;;;;;;4.47;2.90;;;19.80;1.00;;;;;;5094615;28;20457;-43
2023/03/28 09:19:49;;;;;;;3.53;2.10;;;19.10;1.00;;;;;;5096719;28;20532;-41
2023/03/28 09:22:27;;;;;;;5.33;2.23;;;18.40;1.00;;;;;;5093451;28;20464;-41
2023/03/28 09:25:20;;;;;;;3.23;2.20;;;17.20;1.00;;;;;;5095390;28;20429;-47
2023/03/28 09:27:49;;;;;;;3.13;1.90;;;16.40;1.00;;;;;;5095767;28;20500;-43
2023/03/28 09:30:27;;;;;;;4.80;2.57;;;16.00;1.00;;;;;;5093852;28;20519;-43
2023/03/28 09:32:57;;;;;;;4.77;2.90;;;14.70;1.00;;;;;;5094459;28;20414;-43
2023/03/28 09:35:24;;;;;;;3.87;2.20;;;13.40;99.90;;;;;;5092441;28;20493;-45
2023/03/28 09:37:52;;;;;;;4.10;2.70;;;12.90;1.00;;;;;;5093682;28;20820;-42
2023/03/28 09:40:34;;;;;;;4.60;2.40;;;11.70;99.90;;;;;;5095073;28;20422;-45
2023/03/28 09:43:27;;;;;;;3.70;2.03;;;11.40;99.90;;;;;;5094434;28;20449;-44
2023/03/28 09:46:04;;;;;;;10.90;9.00;;;11.30;99.90;;;;;;5094142;28;20428;-44
2023/03/28 09:48:32;;;;;;;7.67;3.87;;;11.20;99.90;;;;;;5093231;28;20491;-43
2023/03/28 09:50:59;;;;;;;5.67;2.50;;;11.10;99.90;;;;;;5092929;28;20418;-43
2023/03/28 09:53:26;;;;;;;4.67;2.47;;;11.50;99.90;;;;;;5094580;28;20473;-45
2023/03/28 09:56:13;;;;;;;3.77;2.30;;;11.70;99.90;;;;;;5094070;28;20533;-43
2023/03/28 09:58:56;;;;;;;5.40;3.20;;;12.00;99.90;;;;;;5062839;28;20452;-43
2023/03/28 10:01:30;;;;;;;3.43;2.80;;;11.90;99.90;;;;;;5093888;28;20414;-44
2023/03/28 10:03:56;;;;;;;5.27;2.87;;;11.90;99.90;;;;;;5094836;28;20406;-44
2023/03/28 10:06:41;;;;;;;5.30;3.37;;;11.70;99.90;;;;;;5094327;28;20494;-42
2023/03/28 10:09:26;;;;;;;4.77;2.73;;;11.20;99.90;;;;;;5094280;28;20263;-45
2023/03/28 10:11:58;;;;;;;4.40;4.00;;;10.90;99.90;;;;;;5094978;28;20423;-47
2023/03/28 10:14:37;;;;;;;3.00;2.30;;;10.80;99.90;;;;;;5089843;28;20471;-44
2023/03/28 10:17:31;;;;;;;7.37;2.57;;;11.00;99.90;;;;;;5092755;28;20519;-44
2023/03/28 10:20:23;;;;;;;4.50;2.90;;;11.00;99.90;;;;;;5093132;28;20430;-45
2023/03/28 10:22:51;;;;;;;5.37;2.40;;;11.30;99.90;;;;;;5090999;28;20518;-45
2023/03/28 10:25:20;;;;;;;5.40;2.90;;;11.60;99.90;;;;;;5093388;28;20423;-47
2023/03/28 10:27:47;;;;;;;5.63;2.67;;;11.10;99.90;;;;;;5092855;28;20553;-44
2023/03/28 10:30:12;;;;;;;4.60;2.60;;;11.30;1.00;;;;;;5093787;28;20521;-42
2023/03/28 10:32:38;;;;;;;5.20;2.20;;;11.50;99.90;;;;;;5092174;28;20806;-45
2023/03/28 10:35:22;;;;;;;3.97;2.33;;;12.00;99.90;;;;;;5090415;28;20173;-45
2023/03/28 10:37:52;;;;;;;5.00;2.87;;;13.60;1.00;;;;;;5081668;28;21005;-46
2023/03/28 10:40:18;;;;;;;5.57;2.67;;;15.70;1.00;;;;;;5070399;28;20419;-45
2023/03/28 10:42:48;;;;;;;4.20;2.23;;;17.50;1.00;;;;;;5068517;28;20536;-44
2023/03/28 10:45:33;;;;;;;4.13;2.67;;;18.70;1.00;;;;;;5076604;28;20514;-45
2023/03/28 10:48:01;;;;;;;3.90;2.67;;;20.20;1.00;;;;;;5092202;28;20783;-45
2023/03/28 10:50:44;;;;;;;4.20;2.50;;;19.00;1.00;;;;;;5091339;28;20450;-44
2023/03/28 10:53:38;;;;;;;4.67;2.43;;;19.20;1.00;;;;;;5092980;28;20421;-45
2023/03/28 10:56:25;;;;;;;4.30;2.53;;;19.90;1.00;;;;;;5091254;28;20476;-47
2023/03/28 10:59:09;;;;;;;4.33;2.77;;;20.10;1.00;;;;;;5091224;28;20426;-46
2023/03/28 11:02:07;;;;;;;4.33;2.43;;;20.40;1.00;;;;;;5091979;28;20422;-45
2023/03/28 11:04:36;;;;;;;3.53;2.60;;;21.50;1.00;;;;;;5080036;28;20439;-45
2023/03/28 11:07:11;;;;;;;2.73;2.30;;;23.00;1.00;;;;;;5092013;28;20478;-46
2023/03/28 11:09:55;;;;;;;3.50;2.80;;;22.10;1.00;;;;;;5090911;28;20685;-45
2023/03/28 11:12:27;;;;;;;4.50;2.50;;;21.70;1.00;;;;;;5089506;28;20433;-43
2023/03/28 11:15:01;;;;;;;3.00;2.10;;;21.70;1.00;;;;;;5087369;28;20517;-47
2023/03/28 11:17:45;;;;;;;4.47;2.70;;;22.10;1.00;;;;;;5088294;28;20480;-43
2023/03/28 11:20:44;;;;;;;2.80;2.20;;;21.90;1.00;;;;;;5088967;28;20843;-44
2023/03/28 11:23:25;;;;;;;2.90;2.47;;;22.60;1.00;;;;;;5087846;28;20422;-45
2023/03/28 11:26:29;;;;;;;4.50;2.77;;;22.50;1.00;;;;;;5086650;28;20751;-43
2023/03/28 11:29:08;;;;;;;4.40;2.70;;;22.20;1.00;;;;;;5076106;28;20526;-46
2023/03/28 11:31:51;;;;;;;4.23;2.40;;;20.70;1.00;;;;;;5089202;28;20430;-45
2023/03/28 11:34:34;;;;;;;3.90;2.70;;;20.40;1.00;;;;;;5092841;28;20478;-46
2023/03/28 11:37:24;;;;;;;3.20;2.33;;;19.70;1.00;;;;;;5072079;28;20539;-45
2023/03/28 11:39:56;;;;;;;6.57;2.83;;;18.20;99.90;;;;;;5089087;28;20427;-47
2023/03/28 11:42:37;;;;;;;6.03;5.27;;;18.30;99.90;;;;;;5089375;28;20658;-46
2023/03/28 11:45:11;;;;;;;3.20;2.90;;;20.20;1.00;;;;;;5086994;28;20415;-43
2023/03/28 11:48:26;;;;;;;4.50;3.10;;;20.60;1.00;;;;;;5089142;28;20406;-45
2023/03/28 11:51:12;;;;;;;5.67;2.53;;;19.20;1.00;;;;;;5013043;28;20426;-43
2023/03/28 11:54:01;;;;;;;4.10;2.63;;;20.00;1.00;;;;;;5089268;28;20429;-44
2023/03/28 11:56:34;;;;;;;2.70;2.50;;;20.40;1.00;;;;;;5088113;28;21003;-46
2023/03/28 11:59:11;;;;;;;4.80;3.03;;;21.50;1.00;;;;;;5082317;28;20962;-45
2023/03/28 12:01:43;;;;;;;3.43;2.93;;;21.80;1.00;;;;;;5084146;28;20453;-46
2023/03/28 12:04:32;;;;;;;3.83;2.70;;;21.90;1.00;;;;;;5068095;28;20548;-44
2023/03/28 12:07:17;;;;;;;3.10;2.63;;;21.20;1.00;;;;;;5086761;28;20450;-43
2023/03/28 12:09:50;;;;;;;5.00;2.50;;;20.00;1.00;;;;;;5085381;28;20426;-45
2023/03/28 12:12:26;;;;;;;4.90;3.20;;;19.70;99.90;;;;;;5086934;28;20577;-48
2023/03/28 12:14:53;;;;;;;4.07;2.83;;;19.70;99.90;;;;;;5088042;28;20569;-46
2023/03/28 12:17:28;;;;;;;5.23;2.37;;;20.00;1.00;;;;;;5089449;28;20466;-45
2023/03/28 12:19:55;;;;;;;3.77;2.70;;;20.10;1.00;;;;;;5089982;28;20816;-46
2023/03/28 12:22:39;;;;;;;5.07;2.37;;;20.20;1.00;;;;;;5091077;28;20414;-48
2023/03/28 12:25:54;;;;;;;2.93;2.63;;;20.60;1.00;;;;;;5086795;28;20808;-47
2023/03/28 12:28:37;;;;;;;4.53;3.20;;;21.20;1.00;;;;;;5071905;28;20439;-44
2023/03/28 12:31:21;;;;;;;5.40;3.00;;;20.60;1.00;;;;;;5087382;28;20422;-53
2023/03/28 12:33:50;;;;;;;5.30;2.67;;;20.00;99.90;;;;;;5069068;28;20529;-45
2023/03/28 12:36:23;;;;;;;3.30;3.00;;;20.20;99.90;;;;;;5089407;28;20580;-48
2023/03/28 12:38:54;;;;;;;3.73;2.90;;;19.50;99.90;;;;;;5093207;28;20448;-45
2023/03/28 12:41:23;;;;;;;3.83;3.27;;;19.00;99.90;;;;;;5095895;28;20526;-45
2023/03/28 12:44:09;;;;;;;3.23;2.50;;;18.40;99.90;;;;;;5095636;28;20429;-45
2023/03/28 12:46:36;;;;;;;3.33;2.53;;;18.30;99.90;;;;;;5092839;28;20457;-49
2023/03/28 12:49:09;;;;;;;3.67;2.70;;;19.50;99.90;;;;;;5094026;28;20537;-45
2023/03/28 12:51:36;;;;;;;4.70;2.97;;;20.90;1.00;;;;;;5088655;28;20724;-44
2023/03/28 12:54:07;;;;;;;4.80;2.90;;;19.90;99.90;;;;;;5089962;28;20414;-44
2023/03/28 12:56:33;;;;;;;4.43;3.07;;;21.00;1.00;;;;;;5090441;28;20635;-43
2023/03/28 12:58:59;;;;;;;3.77;2.93;;;22.30;1.00;;;;;;5092596;28;20701;-46
2023/03/28 13:01:41;;;;;;;3.93;3.10;;;22.50;1.00;;;;;;5092603;28;20560;-46
2023/03/28 13:04:20;;;;;;;2.70;2.50;;;22.80;1.00;;;;;;5092449;28;20176;-44
2023/03/28 13:07:02;;;;;;;4.13;3.23;;;24.00;1.00;;;;;;5093722;28;20537;-45
2023/03/28 13:09:34;;;;;;;3.07;2.43;;;24.90;1.00;;;;;;5094408;28;20505;-46
2023/03/28 13:12:20;;;;;;;4.70;2.73;;;26.20;1.00;;;;;;5094453;28;20652;-47
2023/03/28 13:14:58;;;;;;;3.70;2.63;;;27.30;1.00;;;;;;5094700;28;20438;-45
2023/03/28 13:17:32;;;;;;;2.90;2.60;;;26.90;1.00;;;;;;5096610;28;20465;-44
2023/03/28 13:20:24;;;;;;;5.63;2.70;;;26.00;1.00;;;;;;5093666;28;20478;-45
2023/03/28 13:22:53;;;;;;;5.37;3.37;;;24.50;1.00;;;;;;5092803;28;20867;-46